sensor_id;sensor_type;location;lat;lon;timestamp;temperature;humidity
22674;DHT22;11504;43.334;21.918;2023-03-01T00:07:53;8.1;100.0
22674;DHT22;11504;43.334;21.918;2023-03-01T00:12:32;8.1;100.0
22674;DHT22;11504;43.334;21.918;2023-03-01T00:17:08;8.1;100.0
22674;DHT22;11504;43.334;21.918;2023-03-01T00:21:46;8.1;100.0
22674;DHT22;11504;43.334;21.918;2023-03-01T00:26:26;7.9;100.0
22674;DHT22;11504;43.334;21.918;2023-03-01T00:31:09;7.9;100.0
22674;DHT22;11504;43.334;21.918;2023-03-01T00:35:49;7.7;100.0
22674;DHT22;11504;43.334;21.918;2023-03-01T00:40:30;7.7;100.0
22674;DHT22;11504;43.334;21.918;2023-03-01T00:45:10;7.8;100.0
22674;DHT22;11504;43.334;21.918;2023-03-01T00:49:48;7.8;100.0
22674;DHT22;11504;43.334;21.918;2023-03-01T00:54:25;7.8;100.0
22674;DHT22;11504;43.334;21.918;2023-03-01T00:59:02;7.8;100.0
22674;DHT22;11504;43.334;21.918;2023-03-01T01:03:39;7.8;100.0
22674;DHT22;11504;43.334;21.918;2023-03-01T01:08:16;7.7;100.0
22674;DHT22;11504;43.334;21.918;2023-03-01T01:12:53;7.7;100.0
22674;DHT22;11504;43.334;21.918;2023-03-01T01:17:30;7.6;100.0
22674;DHT22;11504;43.334;21.918;2023-03-01T01:22:07;7.6;100.0
22674;DHT22;11504;43.334;21.918;2023-03-01T01:26:46;7.6;100.0
22674;DHT22;11504;43.334;21.918;2023-03-01T01:31:27;7.6;100.0
22674;DHT22;11504;43.334;21.918;2023-03-01T01:36:08;7.7;100.0
22674;DHT22;11504;43.334;21.918;2023-03-01T01:40:47;7.7;100.0
22674;DHT22;11504;43.334;21.918;2023-03-01T01:45:36;7.8;100.0
22674;DHT22;11504;43.334;21.918;2023-03-01T01:50:20;7.8;100.0
22674;DHT22;11504;43.334;21.918;2023-03-01T01:55:12;7.8;100.0
22674;DHT22;11504;43.334;21.918;2023-03-01T02:00:06;7.8;100.0
22674;DHT22;11504;43.334;21.918;2023-03-01T02:05:05;7.8;100.0
22674;DHT22;11504;43.334;21.918;2023-03-01T02:09:53;7.8;100.0
22674;DHT22;11504;43.334;21.918;2023-03-01T02:14:29;7.8;100.0
22674;DHT22;11504;43.334;21.918;2023-03-01T02:19:40;7.8;100.0
22674;DHT22;11504;43.334;21.918;2023-03-01T02:25:10;7.8;100.0
22674;DHT22;11504;43.334;21.918;2023-03-01T02:29:58;7.8;100.0
22674;DHT22;11504;43.334;21.918;2023-03-01T02:34:36;7.7;100.0
22674;DHT22;11504;43.334;21.918;2023-03-01T02:39:27;7.7;100.0
22674;DHT22;11504;43.334;21.918;2023-03-01T02:44:06;7.7;100.0
22674;DHT22;11504;43.334;21.918;2023-03-01T02:48:52;7.7;100.0
22674;DHT22;11504;43.334;21.918;2023-03-01T02:54:07;7.7;100.0
22674;DHT22;11504;43.334;21.918;2023-03-01T02:58:48;7.7;100.0
22674;DHT22;11504;43.334;21.918;2023-03-01T03:03:25;7.7;100.0
22674;DHT22;11504;43.334;21.918;2023-03-01T03:08:04;7.8;100.0
22674;DHT22;11504;43.334;21.918;2023-03-01T03:12:42;7.8;100.0
22674;DHT22;11504;43.334;21.918;2023-03-01T03:17:19;7.9;100.0
22674;DHT22;11504;43.334;21.918;2023-03-01T03:21:56;7.9;100.0
22674;DHT22;11504;43.334;21.918;2023-03-01T03:26:33;7.8;100.0
22674;DHT22;11504;43.334;21.918;2023-03-01T03:31:10;7.8;100.0
22674;DHT22;11504;43.334;21.918;2023-03-01T03:35:50;7.8;100.0
22674;DHT22;11504;43.334;21.918;2023-03-01T03:40:37;7.8;100.0
22674;DHT22;11504;43.334;21.918;2023-03-01T03:45:19;7.8;100.0
22674;DHT22;11504;43.334;21.918;2023-03-01T03:49:56;7.8;100.0
22674;DHT22;11504;43.334;21.918;2023-03-01T03:54:32;7.8;100.0
22674;DHT22;11504;43.334;21.918;2023-03-01T03:59:09;7.8;100.0
22674;DHT22;11504;43.334;21.918;2023-03-01T04:03:46;7.8;100.0
22674;DHT22;11504;43.334;21.918;2023-03-01T04:08:25;7.9;100.0
22674;DHT22;11504;43.334;21.918;2023-03-01T04:13:02;7.9;100.0
22674;DHT22;11504;43.334;21.918;2023-03-01T04:17:40;8.0;100.0
22674;DHT22;11504;43.334;21.918;2023-03-01T04:22:16;8.0;100.0
22674;DHT22;11504;43.334;21.918;2023-03-01T04:26:53;8.0;100.0
22674;DHT22;11504;43.334;21.918;2023-03-01T04:31:29;8.0;100.0
22674;DHT22;11504;43.334;21.918;2023-03-01T04:36:11;8.0;100.0
22674;DHT22;11504;43.334;21.918;2023-03-01T04:40:48;8.0;100.0
22674;DHT22;11504;43.334;21.918;2023-03-01T04:45:25;8.0;100.0
22674;DHT22;11504;43.334;21.918;2023-03-01T04:50:01;8.0;100.0
22674;DHT22;11504;43.334;21.918;2023-03-01T04:54:38;7.9;100.0
22674;DHT22;11504;43.334;21.918;2023-03-01T04:59:15;7.9;100.0
22674;DHT22;11504;43.334;21.918;2023-03-01T05:03:52;7.9;100.0
22674;DHT22;11504;43.334;21.918;2023-03-01T05:08:29;8.0;100.0
22674;DHT22;11504;43.334;21.918;2023-03-01T05:13:05;8.0;100.0
22674;DHT22;11504;43.334;21.918;2023-03-01T05:17:42;8.1;100.0
22674;DHT22;11504;43.334;21.918;2023-03-01T05:22:18;8.1;100.0
22674;DHT22;11504;43.334;21.918;2023-03-01T05:26:55;8.0;100.0
22674;DHT22;11504;43.334;21.918;2023-03-01T05:31:31;8.0;100.0
22674;DHT22;11504;43.334;21.918;2023-03-01T05:36:10;8.0;100.0
22674;DHT22;11504;43.334;21.918;2023-03-01T05:40:49;8.0;100.0
22674;DHT22;11504;43.334;21.918;2023-03-01T05:45:28;8.1;100.0
22674;DHT22;11504;43.334;21.918;2023-03-01T05:50:06;8.1;100.0
22674;DHT22;11504;43.334;21.918;2023-03-01T05:54:42;8.2;100.0
22674;DHT22;11504;43.334;21.918;2023-03-01T05:59:18;8.2;100.0
22674;DHT22;11504;43.334;21.918;2023-03-01T06:03:56;8.2;100.0
22674;DHT22;11504;43.334;21.918;2023-03-01T06:08:33;8.3;100.0
22674;DHT22;11504;43.334;21.918;2023-03-01T06:13:10;8.3;100.0
22674;DHT22;11504;43.334;21.918;2023-03-01T06:17:48;8.4;100.0
22674;DHT22;11504;43.334;21.918;2023-03-01T06:22:26;8.4;100.0
22674;DHT22;11504;43.334;21.918;2023-03-01T06:27:03;8.4;100.0
22674;DHT22;11504;43.334;21.918;2023-03-01T06:31:40;8.4;100.0
22674;DHT22;11504;43.334;21.918;2023-03-01T06:36:17;8.4;100.0
22674;DHT22;11504;43.334;21.918;2023-03-01T06:40:55;8.4;100.0
22674;DHT22;11504;43.334;21.918;2023-03-01T06:45:32;8.6;100.0
22674;DHT22;11504;43.334;21.918;2023-03-01T06:50:13;8.6;100.0
22674;DHT22;11504;43.334;21.918;2023-03-01T06:54:50;8.7;100.0
22674;DHT22;11504;43.334;21.918;2023-03-01T06:59:26;8.7;100.0
22674;DHT22;11504;43.334;21.918;2023-03-01T07:04:03;8.7;100.0
22674;DHT22;11504;43.334;21.918;2023-03-01T07:08:40;8.8;100.0
22674;DHT22;11504;43.334;21.918;2023-03-01T07:13:16;8.8;100.0
22674;DHT22;11504;43.334;21.918;2023-03-01T07:17:53;8.9;100.0
22674;DHT22;11504;43.334;21.918;2023-03-01T07:22:29;8.9;100.0
22674;DHT22;11504;43.334;21.918;2023-03-01T07:27:05;9.0;100.0
22674;DHT22;11504;43.334;21.918;2023-03-01T07:31:42;9.0;100.0
22674;DHT22;11504;43.334;21.918;2023-03-01T07:36:18;9.2;100.0
22674;DHT22;11504;43.334;21.918;2023-03-01T07:41:03;9.2;100.0
22674;DHT22;11504;43.334;21.918;2023-03-01T07:45:39;9.4;100.0
22674;DHT22;11504;43.334;21.918;2023-03-01T07:50:17;9.4;100.0
22674;DHT22;11504;43.334;21.918;2023-03-01T07:54:53;9.5;100.0
22674;DHT22;11504;43.334;21.918;2023-03-01T07:59:29;9.5;100.0
22674;DHT22;11504;43.334;21.918;2023-03-01T08:04:08;9.5;100.0
22674;DHT22;11504;43.334;21.918;2023-03-01T08:08:46;9.6;100.0
22674;DHT22;11504;43.334;21.918;2023-03-01T08:13:23;9.6;100.0
22674;DHT22;11504;43.334;21.918;2023-03-01T08:18:00;9.6;100.0
22674;DHT22;11504;43.334;21.918;2023-03-01T08:22:36;9.6;100.0
22674;DHT22;11504;43.334;21.918;2023-03-01T08:27:16;10.0;100.0
22674;DHT22;11504;43.334;21.918;2023-03-01T08:31:53;10.0;100.0
22674;DHT22;11504;43.334;21.918;2023-03-01T08:36:39;10.4;100.0
22674;DHT22;11504;43.334;21.918;2023-03-01T08:41:19;10.4;100.0
22674;DHT22;11504;43.334;21.918;2023-03-01T08:45:56;10.9;100.0
22674;DHT22;11504;43.334;21.918;2023-03-01T08:50:33;10.9;100.0
22674;DHT22;11504;43.334;21.918;2023-03-01T08:55:10;11.3;100.0
22674;DHT22;11504;43.334;21.918;2023-03-01T08:59:47;11.3;100.0
22674;DHT22;11504;43.334;21.918;2023-03-01T09:04:24;12.1;100.0
22674;DHT22;11504;43.334;21.918;2023-03-01T09:09:06;12.1;100.0
22674;DHT22;11504;43.334;21.918;2023-03-01T09:13:52;12.1;100.0
22674;DHT22;11504;43.334;21.918;2023-03-01T09:18:30;12.9;100.0
22674;DHT22;11504;43.334;21.918;2023-03-01T09:23:07;12.9;100.0
22674;DHT22;11504;43.334;21.918;2023-03-01T09:27:44;12.6;100.0
22674;DHT22;11504;43.334;21.918;2023-03-01T09:32:21;12.6;100.0
22674;DHT22;11504;43.334;21.918;2023-03-01T09:36:58;12.4;100.0
22674;DHT22;11504;43.334;21.918;2023-03-01T09:42:00;12.4;100.0
22674;DHT22;11504;43.334;21.918;2023-03-01T09:46:45;12.1;100.0
22674;DHT22;11504;43.334;21.918;2023-03-01T09:51:35;12.1;100.0
22674;DHT22;11504;43.334;21.918;2023-03-01T09:56:34;11.8;100.0
22674;DHT22;11504;43.334;21.918;2023-03-01T10:01:38;11.8;100.0
22674;DHT22;11504;43.334;21.918;2023-03-01T10:06:23;11.8;100.0
22674;DHT22;11504;43.334;21.918;2023-03-01T10:11:00;11.8;100.0
22674;DHT22;11504;43.334;21.918;2023-03-01T11:08:45;11.7;100.0
22674;DHT22;11504;43.334;21.918;2023-03-01T11:13:22;11.7;100.0
22674;DHT22;11504;43.334;21.918;2023-03-01T11:17:59;11.7;100.0
22674;DHT22;11504;43.334;21.918;2023-03-01T11:22:36;11.7;100.0
22674;DHT22;11504;43.334;21.918;2023-03-01T11:27:34;11.7;100.0
22674;DHT22;11504;43.334;21.918;2023-03-01T11:32:36;11.7;100.0
22674;DHT22;11504;43.334;21.918;2023-03-01T11:38:01;11.7;100.0
22674;DHT22;11504;43.334;21.918;2023-03-01T11:43:30;11.7;100.0
22674;DHT22;11504;43.334;21.918;2023-03-01T11:49:29;11.7;100.0
22674;DHT22;11504;43.334;21.918;2023-03-01T12:28:57;10.7;100.0
22674;DHT22;11504;43.334;21.918;2023-03-01T12:34:15;10.7;100.0
22674;DHT22;11504;43.334;21.918;2023-03-01T12:39:48;10.7;100.0
22674;DHT22;11504;43.334;21.918;2023-03-01T12:45:42;10.7;100.0
22674;DHT22;11504;43.334;21.918;2023-03-01T12:50:49;10.7;100.0
22674;DHT22;11504;43.334;21.918;2023-03-01T13:06:15;10.2;100.0
22674;DHT22;11504;43.334;21.918;2023-03-01T13:11:21;10.2;100.0
22674;DHT22;11504;43.334;21.918;2023-03-01T13:16:43;10.2;100.0
22674;DHT22;11504;43.334;21.918;2023-03-01T13:21:31;10.2;100.0
22674;DHT22;11504;43.334;21.918;2023-03-01T13:26:17;10.2;100.0
22674;DHT22;11504;43.334;21.918;2023-03-01T13:30:54;10.2;100.0
22674;DHT22;11504;43.334;21.918;2023-03-01T13:35:46;10.3;100.0
22674;DHT22;11504;43.334;21.918;2023-03-01T13:42:45;10.3;100.0
22674;DHT22;11504;43.334;21.918;2023-03-01T13:47:25;10.3;100.0
22674;DHT22;11504;43.334;21.918;2023-03-01T13:52:36;10.3;100.0
22674;DHT22;11504;43.334;21.918;2023-03-01T13:57:38;10.3;100.0
22674;DHT22;11504;43.334;21.918;2023-03-01T14:02:16;10.3;100.0
22674;DHT22;11504;43.334;21.918;2023-03-01T14:07:18;10.2;100.0
22674;DHT22;11504;43.334;21.918;2023-03-01T14:12:44;10.2;100.0
22674;DHT22;11504;43.334;21.918;2023-03-01T14:18:03;10.2;100.0
22674;DHT22;11504;43.334;21.918;2023-03-01T14:22:46;10.2;100.0
22674;DHT22;11504;43.334;21.918;2023-03-01T14:27:39;10.4;100.0
22674;DHT22;11504;43.334;21.918;2023-03-01T14:32:30;10.4;100.0
22674;DHT22;11504;43.334;21.918;2023-03-01T14:37:26;10.5;100.0
22674;DHT22;11504;43.334;21.918;2023-03-01T14:42:06;10.5;100.0
22674;DHT22;11504;43.334;21.918;2023-03-01T14:46:46;10.5;100.0
22674;DHT22;11504;43.334;21.918;2023-03-01T14:51:28;10.5;100.0
22674;DHT22;11504;43.334;21.918;2023-03-01T15:05:41;11.1;100.0
22674;DHT22;11504;43.334;21.918;2023-03-01T15:10:30;11.1;100.0
22674;DHT22;11504;43.334;21.918;2023-03-01T15:15:41;11.1;100.0
22674;DHT22;11504;43.334;21.918;2023-03-01T15:20:24;11.1;100.0
22674;DHT22;11504;43.334;21.918;2023-03-01T15:25:02;11.0;100.0
22674;DHT22;11504;43.334;21.918;2023-03-01T15:29:39;11.0;100.0
22674;DHT22;11504;43.334;21.918;2023-03-01T15:34:31;11.0;100.0
22674;DHT22;11504;43.334;21.918;2023-03-01T15:39:41;10.8;100.0
22674;DHT22;11504;43.334;21.918;2023-03-01T15:44:34;10.8;100.0
22674;DHT22;11504;43.334;21.918;2023-03-01T15:49:41;10.6;100.0
22674;DHT22;11504;43.334;21.918;2023-03-01T15:54:27;10.6;100.0
22674;DHT22;11504;43.334;21.918;2023-03-01T15:59:05;10.4;100.0
22674;DHT22;11504;43.334;21.918;2023-03-01T16:03:41;10.4;100.0
22674;DHT22;11504;43.334;21.918;2023-03-01T16:08:19;10.2;100.0
22674;DHT22;11504;43.334;21.918;2023-03-01T16:12:55;10.2;100.0
22674;DHT22;11504;43.334;21.918;2023-03-01T16:17:32;10.1;100.0
22674;DHT22;11504;43.334;21.918;2023-03-01T16:22:10;10.1;100.0
22674;DHT22;11504;43.334;21.918;2023-03-01T16:26:47;10.0;100.0
22674;DHT22;11504;43.334;21.918;2023-03-01T16:31:25;10.0;100.0
22674;DHT22;11504;43.334;21.918;2023-03-01T16:36:12;9.8;100.0
22674;DHT22;11504;43.334;21.918;2023-03-01T16:40:52;9.8;100.0
22674;DHT22;11504;43.334;21.918;2023-03-01T16:45:36;9.7;100.0
22674;DHT22;11504;43.334;21.918;2023-03-01T16:50:12;9.7;100.0
22674;DHT22;11504;43.334;21.918;2023-03-01T16:54:50;9.6;100.0
22674;DHT22;11504;43.334;21.918;2023-03-01T16:59:26;9.6;100.0
22674;DHT22;11504;43.334;21.918;2023-03-01T17:04:05;9.6;100.0
22674;DHT22;11504;43.334;21.918;2023-03-01T17:08:42;9.4;100.0
22674;DHT22;11504;43.334;21.918;2023-03-01T17:13:20;9.4;100.0
22674;DHT22;11504;43.334;21.918;2023-03-01T17:17:56;9.3;100.0
22674;DHT22;11504;43.334;21.918;2023-03-01T17:22:33;9.3;100.0
22674;DHT22;11504;43.334;21.918;2023-03-01T17:27:13;9.2;100.0
22674;DHT22;11504;43.334;21.918;2023-03-01T17:31:50;9.2;100.0
22674;DHT22;11504;43.334;21.918;2023-03-01T17:36:26;9.2;100.0
22674;DHT22;11504;43.334;21.918;2023-03-01T17:41:04;9.2;100.0
22674;DHT22;11504;43.334;21.918;2023-03-01T17:45:44;9.2;100.0
22674;DHT22;11504;43.334;21.918;2023-03-01T17:50:20;9.2;100.0
22674;DHT22;11504;43.334;21.918;2023-03-01T17:54:56;9.2;100.0
22674;DHT22;11504;43.334;21.918;2023-03-01T17:59:36;9.2;100.0
22674;DHT22;11504;43.334;21.918;2023-03-01T18:04:14;9.2;100.0
22674;DHT22;11504;43.334;21.918;2023-03-01T18:08:52;9.2;100.0
22674;DHT22;11504;43.334;21.918;2023-03-01T18:13:29;9.2;100.0
22674;DHT22;11504;43.334;21.918;2023-03-01T18:27:19;9.2;100.0
22674;DHT22;11504;43.334;21.918;2023-03-01T18:31:57;9.2;100.0
22674;DHT22;11504;43.334;21.918;2023-03-01T18:36:35;9.2;100.0
22674;DHT22;11504;43.334;21.918;2023-03-01T18:41:11;9.2;100.0
22674;DHT22;11504;43.334;21.918;2023-03-01T18:45:55;9.0;100.0
22674;DHT22;11504;43.334;21.918;2023-03-01T18:50:31;9.0;100.0
22674;DHT22;11504;43.334;21.918;2023-03-01T18:55:10;8.9;100.0
22674;DHT22;11504;43.334;21.918;2023-03-01T18:59:46;8.9;100.0
22674;DHT22;11504;43.334;21.918;2023-03-01T19:04:23;8.9;100.0
22674;DHT22;11504;43.334;21.918;2023-03-01T19:09:00;8.8;100.0
22674;DHT22;11504;43.334;21.918;2023-03-01T19:13:40;8.8;100.0
22674;DHT22;11504;43.334;21.918;2023-03-01T19:18:17;8.7;100.0
22674;DHT22;11504;43.334;21.918;2023-03-01T19:22:54;8.7;100.0
22674;DHT22;11504;43.334;21.918;2023-03-01T19:27:31;8.9;100.0
22674;DHT22;11504;43.334;21.918;2023-03-01T19:32:08;8.9;100.0
22674;DHT22;11504;43.334;21.918;2023-03-01T19:36:45;9.1;100.0
22674;DHT22;11504;43.334;21.918;2023-03-01T19:41:22;9.1;100.0
22674;DHT22;11504;43.334;21.918;2023-03-01T19:45:59;9.1;100.0
22674;DHT22;11504;43.334;21.918;2023-03-01T19:50:37;9.1;100.0
22674;DHT22;11504;43.334;21.918;2023-03-01T19:55:14;9.1;100.0
22674;DHT22;11504;43.334;21.918;2023-03-01T19:59:51;9.1;100.0
22674;DHT22;11504;43.334;21.918;2023-03-01T20:04:27;9.1;100.0
22674;DHT22;11504;43.334;21.918;2023-03-01T20:09:08;9.0;100.0
22674;DHT22;11504;43.334;21.918;2023-03-01T20:13:46;9.0;100.0
22674;DHT22;11504;43.334;21.918;2023-03-01T20:18:22;9.0;100.0
22674;DHT22;11504;43.334;21.918;2023-03-01T20:22:59;9.0;100.0
22674;DHT22;11504;43.334;21.918;2023-03-01T20:27:35;9.0;100.0
22674;DHT22;11504;43.334;21.918;2023-03-01T20:32:12;9.0;100.0
22674;DHT22;11504;43.334;21.918;2023-03-01T20:36:49;9.1;100.0
22674;DHT22;11504;43.334;21.918;2023-03-01T20:41:25;9.1;100.0
22674;DHT22;11504;43.334;21.918;2023-03-01T20:46:05;9.0;100.0
22674;DHT22;11504;43.334;21.918;2023-03-01T20:50:44;9.0;100.0
22674;DHT22;11504;43.334;21.918;2023-03-01T20:55:21;8.9;100.0
22674;DHT22;11504;43.334;21.918;2023-03-01T20:59:58;8.9;100.0
22674;DHT22;11504;43.334;21.918;2023-03-01T21:04:35;8.9;100.0
22674;DHT22;11504;43.334;21.918;2023-03-01T21:09:12;8.8;100.0
22674;DHT22;11504;43.334;21.918;2023-03-01T21:13:48;8.8;100.0
22674;DHT22;11504;43.334;21.918;2023-03-01T21:18:29;8.7;100.0
22674;DHT22;11504;43.334;21.918;2023-03-01T21:23:07;8.7;100.0
22674;DHT22;11504;43.334;21.918;2023-03-01T21:27:44;8.7;100.0
22674;DHT22;11504;43.334;21.918;2023-03-01T21:32:20;8.7;100.0
22674;DHT22;11504;43.334;21.918;2023-03-01T21:46:24;9.3;100.0
22674;DHT22;11504;43.334;21.918;2023-03-01T21:51:04;9.3;100.0
22674;DHT22;11504;43.334;21.918;2023-03-01T21:55:48;9.3;100.0
22674;DHT22;11504;43.334;21.918;2023-03-01T22:00:25;9.3;100.0
22674;DHT22;11504;43.334;21.918;2023-03-01T22:05:03;9.2;100.0
22674;DHT22;11504;43.334;21.918;2023-03-01T22:09:41;9.2;100.0
22674;DHT22;11504;43.334;21.918;2023-03-01T22:14:21;9.2;100.0
22674;DHT22;11504;43.334;21.918;2023-03-01T22:18:59;9.2;100.0
22674;DHT22;11504;43.334;21.918;2023-03-01T22:23:41;9.2;100.0
22674;DHT22;11504;43.334;21.918;2023-03-01T22:28:18;9.1;100.0
22674;DHT22;11504;43.334;21.918;2023-03-01T22:32:55;9.1;100.0
22674;DHT22;11504;43.334;21.918;2023-03-01T22:37:31;9.0;100.0
22674;DHT22;11504;43.334;21.918;2023-03-01T22:42:08;9.0;100.0
22674;DHT22;11504;43.334;21.918;2023-03-01T22:46:47;9.0;100.0
22674;DHT22;11504;43.334;21.918;2023-03-01T22:51:35;9.0;100.0
22674;DHT22;11504;43.334;21.918;2023-03-01T22:56:21;9.1;100.0
22674;DHT22;11504;43.334;21.918;2023-03-01T23:00:57;9.1;100.0
22674;DHT22;11504;43.334;21.918;2023-03-01T23:05:34;9.0;100.0
22674;DHT22;11504;43.334;21.918;2023-03-01T23:10:12;9.0;100.0
22674;DHT22;11504;43.334;21.918;2023-03-01T23:14:49;9.0;100.0
22674;DHT22;11504;43.334;21.918;2023-03-01T23:19:29;8.9;100.0
22674;DHT22;11504;43.334;21.918;2023-03-01T23:24:06;8.9;100.0
22674;DHT22;11504;43.334;21.918;2023-03-01T23:28:44;8.8;100.0
22674;DHT22;11504;43.334;21.918;2023-03-01T23:33:22;8.8;100.0
22674;DHT22;11504;43.334;21.918;2023-03-01T23:37:59;8.7;100.0
22674;DHT22;11504;43.334;21.918;2023-03-01T23:42:35;8.7;100.0
22674;DHT22;11504;43.334;21.918;2023-03-01T23:47:12;8.7;100.0
22674;DHT22;11504;43.334;21.918;2023-03-01T23:51:50;8.7;100.0
